Time;durP1;ratioP1;P1;durP2;ratioP2;P2;SDS_P1;SDS_P2;PMS_P1;PMS_P2;Temp;Humidity;BMP_temperature;BMP_pressure;BME280_temperature;BME280_humidity;BME280_pressure;Samples;Min_cycle;Max_cycle;Signal;HPM_P1;HPM_P2
2021/12/20 00:01:50;;;;;;;10.23;2.10;;;3.00;99.90;;;;;;4127272;28;20460;-78
2021/12/20 00:03:52;;;;;;;7.23;1.60;;;3.00;99.90;;;;;;4128444;28;20514;-78
2021/12/20 00:05:54;;;;;;;12.33;1.90;;;2.90;99.90;;;;;;4132503;28;20900;-78
2021/12/20 00:07:57;;;;;;;8.57;1.93;;;2.90;99.90;;;;;;4130330;28;20506;-78
2021/12/20 00:09:58;;;;;;;8.63;2.10;;;2.90;99.90;;;;;;4128135;28;20529;-78
2021/12/20 00:12:00;;;;;;;9.17;1.83;;;2.80;99.90;;;;;;4127876;28;20475;-78
2021/12/20 00:14:02;;;;;;;12.23;2.00;;;2.80;99.90;;;;;;4122801;28;20475;-78
2021/12/20 00:16:04;;;;;;;4.87;1.53;;;2.70;99.90;;;;;;4128598;28;20459;-78
2021/12/20 00:18:05;;;;;;;8.13;2.27;;;2.70;99.90;;;;;;4128278;28;20466;-79
2021/12/20 00:20:08;;;;;;;6.90;1.57;;;2.70;99.90;;;;;;4126175;28;20479;-78
2021/12/20 00:22:10;;;;;;;11.17;2.17;;;2.60;99.90;;;;;;4125874;28;20484;-78
2021/12/20 00:24:13;;;;;;;5.57;1.80;;;2.60;99.90;;;;;;4125987;28;20494;-79
2021/12/20 00:26:15;;;;;;;7.87;1.90;;;2.40;99.90;;;;;;4126579;28;20493;-78
2021/12/20 00:28:17;;;;;;;6.10;1.40;;;2.50;99.90;;;;;;4128169;28;20965;-79
2021/12/20 00:30:21;;;;;;;4.97;1.50;;;2.50;99.90;;;;;;4126998;28;20482;-78
2021/12/20 00:32:22;;;;;;;8.90;1.53;;;2.50;99.90;;;;;;4125426;28;20975;-79
2021/12/20 00:34:25;;;;;;;8.37;1.87;;;2.50;99.90;;;;;;4130707;28;20458;-78
2021/12/20 00:36:29;;;;;;;8.63;1.97;;;2.40;99.90;;;;;;4128264;28;21161;-79
2021/12/20 00:40:51;;;;;;;5.87;1.40;;;2.40;99.90;;;;;;4125293;28;20489;-79
2021/12/20 00:42:56;;;;;;;7.87;1.57;;;2.30;99.90;;;;;;4127425;28;20498;-78
2021/12/20 00:44:57;;;;;;;8.73;1.70;;;2.30;99.90;;;;;;4126873;28;21024;-78
2021/12/20 00:46:59;;;;;;;6.57;1.70;;;2.30;99.90;;;;;;4125629;28;20506;-78
2021/12/20 00:49:01;;;;;;;5.87;1.57;;;2.30;99.90;;;;;;4116667;28;20956;-78
2021/12/20 00:51:03;;;;;;;8.80;1.77;;;2.20;99.90;;;;;;4116596;28;20510;-78
2021/12/20 00:53:05;;;;;;;10.13;2.27;;;2.20;99.90;;;;;;4129349;28;20981;-78
2021/12/20 00:55:07;;;;;;;6.60;1.50;;;2.20;99.90;;;;;;4128634;28;20466;-78
2021/12/20 00:57:10;;;;;;;8.63;1.60;;;2.10;99.90;;;;;;4126867;28;20501;-78
2021/12/20 00:59:12;;;;;;;5.33;1.27;;;2.10;99.90;;;;;;4127742;28;20462;-79
2021/12/20 01:01:14;;;;;;;4.00;1.00;;;2.10;99.90;;;;;;4126830;28;20533;-78
2021/12/20 01:03:17;;;;;;;9.93;1.53;;;2.00;99.90;;;;;;4127219;28;20474;-78
2021/12/20 01:05:18;;;;;;;10.07;2.03;;;2.00;99.90;;;;;;4123893;28;20503;-79
2021/12/20 01:07:20;;;;;;;8.00;1.40;;;2.00;99.90;;;;;;4120093;28;20498;-78
2021/12/20 01:09:22;;;;;;;5.20;1.50;;;1.90;99.90;;;;;;4120889;28;20533;-78
2021/12/20 01:11:26;;;;;;;5.60;1.43;;;1.90;99.90;;;;;;4126345;28;21034;-78
2021/12/20 01:13:31;;;;;;;8.40;1.20;;;1.90;99.90;;;;;;4127146;28;20572;-78
2021/12/20 01:15:36;;;;;;;12.10;2.10;;;1.90;99.90;;;;;;4121653;28;20826;-78
2021/12/20 01:17:38;;;;;;;5.73;1.40;;;1.80;99.90;;;;;;4110797;28;20502;-78
2021/12/20 01:19:40;;;;;;;5.87;1.40;;;1.80;99.90;;;;;;4111384;28;21030;-78
2021/12/20 01:21:42;;;;;;;8.20;1.47;;;1.80;99.90;;;;;;4128863;28;20509;-78
2021/12/20 01:23:44;;;;;;;3.80;1.57;;;1.80;99.90;;;;;;4127571;28;20567;-79
2021/12/20 01:25:46;;;;;;;9.60;1.80;;;1.70;99.90;;;;;;4161386;22;20530;-80
2021/12/20 01:27:49;;;;;;;8.90;1.53;;;1.70;99.90;;;;;;4128288;28;20453;-80
2021/12/20 01:29:52;;;;;;;8.03;1.20;;;1.70;99.90;;;;;;4127572;28;20470;-87
2021/12/20 01:31:54;;;;;;;7.10;1.40;;;1.60;99.90;;;;;;4127037;28;20805;-82
2021/12/20 01:33:55;;;;;;;10.03;2.07;;;1.60;99.90;;;;;;4126752;28;20474;-86
2021/12/20 01:35:58;;;;;;;7.00;1.40;;;1.60;99.90;;;;;;4126274;28;20489;-80
2021/12/20 01:38:00;;;;;;;9.77;1.60;;;1.60;99.90;;;;;;4127700;28;20465;-82
2021/12/20 01:40:02;;;;;;;10.77;1.53;;;1.50;99.90;;;;;;4126614;28;20462;-80
2021/12/20 01:42:04;;;;;;;10.43;1.50;;;1.50;99.90;;;;;;4124529;28;20483;-83
2021/12/20 01:44:06;;;;;;;8.30;1.70;;;1.50;99.90;;;;;;4130273;28;20546;-79
2021/12/20 01:46:09;;;;;;;6.23;1.47;;;1.50;99.90;;;;;;4137306;28;20482;-81
2021/12/20 01:48:14;;;;;;;7.70;1.77;;;1.50;99.90;;;;;;4127487;28;20516;-81
2021/12/20 01:50:24;;;;;;;10.70;1.80;;;1.40;99.90;;;;;;4125553;28;20512;-80
2021/12/20 01:52:28;;;;;;;8.43;1.43;;;1.40;99.90;;;;;;4131626;28;20477;-83
2021/12/20 01:54:32;;;;;;;8.70;1.50;;;1.40;99.90;;;;;;4127509;28;20572;-81
2021/12/20 01:56:36;;;;;;;6.13;1.47;;;1.30;99.90;;;;;;4127289;28;21037;-80
2021/12/20 01:58:38;;;;;;;6.10;1.50;;;1.30;99.90;;;;;;4127995;28;20469;-82
2021/12/20 02:03:10;;;;;;;8.30;1.53;;;1.30;99.90;;;;;;4241696;27;21117;-81
2021/12/20 02:05:19;;;;;;;6.73;1.40;;;1.30;99.90;;;;;;4225389;28;21138;-82
2021/12/20 02:07:35;;;;;;;9.07;2.70;;;1.30;99.90;;;;;;4222868;28;20570;-83
2021/12/20 02:09:37;;;;;;;13.23;2.23;;;1.20;99.90;;;;;;4224495;28;20541;-83
2021/12/20 02:11:40;;;;;;;5.03;1.80;;;1.20;99.90;;;;;;4227074;27;20455;-83
2021/12/20 02:13:42;;;;;;;5.20;1.90;;;1.20;99.90;;;;;;4257775;22;20464;-77
2021/12/20 02:15:44;;;;;;;5.17;1.60;;;1.20;99.90;;;;;;4204923;28;20499;-78
2021/12/20 02:17:46;;;;;;;4.93;1.60;;;1.20;99.90;;;;;;4208848;28;20958;-77
2021/12/20 02:19:49;;;;;;;5.63;1.73;;;1.20;99.90;;;;;;4207760;28;20511;-77
2021/12/20 02:21:52;;;;;;;13.67;2.13;;;1.10;99.90;;;;;;4210812;28;21252;-75
2021/12/20 02:23:54;;;;;;;8.93;1.90;;;1.10;99.90;;;;;;4208354;28;20491;-76
2021/12/20 02:25:56;;;;;;;8.20;1.60;;;1.10;99.90;;;;;;4196737;28;21016;-79
2021/12/20 02:28:02;;;;;;;11.80;2.13;;;1.10;99.90;;;;;;4206081;28;20636;-76
2021/12/20 02:30:11;;;;;;;9.30;2.00;;;1.00;99.90;;;;;;4206609;28;20461;-78
2021/12/20 02:39:16;;;;;;;7.27;1.70;;;0.90;99.90;;;;;;4190095;28;20439;-79
2021/12/20 02:41:22;;;;;;;6.00;1.60;;;0.90;99.90;;;;;;4204283;28;20501;-81
2021/12/20 02:43:24;;;;;;;7.20;1.50;;;1.00;99.90;;;;;;4204828;28;20466;-77
2021/12/20 02:45:30;;;;;;;6.97;1.60;;;0.90;99.90;;;;;;4190846;28;20562;-78
2021/12/20 02:47:32;;;;;;;6.27;1.70;;;0.90;99.90;;;;;;4206880;28;20464;-77
2021/12/20 02:49:35;;;;;;;4.70;1.53;;;0.90;99.90;;;;;;4197577;28;20971;-78
2021/12/20 02:51:38;;;;;;;6.90;2.20;;;0.90;99.90;;;;;;4205650;28;20449;-78
2021/12/20 02:53:41;;;;;;;7.40;1.67;;;0.90;99.90;;;;;;4203734;28;20532;-78
2021/12/20 02:55:42;;;;;;;6.87;1.80;;;0.80;99.90;;;;;;4207356;28;20461;-75
2021/12/20 02:57:44;;;;;;;5.50;1.60;;;0.80;99.90;;;;;;4203710;28;20463;-79
2021/12/20 02:59:46;;;;;;;6.07;1.60;;;0.80;99.90;;;;;;4206996;28;20445;-77
2021/12/20 03:01:50;;;;;;;6.80;2.20;;;0.80;99.90;;;;;;4205580;28;21041;-76
2021/12/20 03:03:54;;;;;;;4.27;1.83;;;0.80;99.90;;;;;;4206404;28;20478;-76
2021/12/20 03:05:55;;;;;;;9.90;2.37;;;0.80;99.90;;;;;;4210594;28;20471;-77
2021/12/20 03:07:57;;;;;;;5.30;2.00;;;0.70;99.90;;;;;;4209457;28;20476;-77
2021/12/20 03:10:03;;;;;;;5.80;1.83;;;0.70;99.90;;;;;;4200472;28;20464;-77
2021/12/20 03:12:07;;;;;;;3.23;1.67;;;0.70;99.90;;;;;;4192911;28;20547;-82
2021/12/20 03:14:15;;;;;;;10.13;2.57;;;0.70;99.90;;;;;;4189010;28;20501;-79
2021/12/20 03:16:17;;;;;;;7.77;2.13;;;0.70;99.90;;;;;;4182399;28;20468;-78
2021/12/20 03:18:18;;;;;;;9.37;2.00;;;0.70;99.90;;;;;;4195739;28;20958;-78
2021/12/20 03:20:21;;;;;;;9.53;2.10;;;0.70;99.90;;;;;;4188973;28;21016;-82
2021/12/20 03:22:23;;;;;;;6.60;2.13;;;0.70;99.90;;;;;;4199079;28;20500;-80
2021/12/20 03:24:26;;;;;;;7.43;1.80;;;0.60;99.90;;;;;;4191112;28;20531;-78
2021/12/20 03:26:29;;;;;;;4.37;2.00;;;0.60;99.90;;;;;;4185804;28;20466;-76
2021/12/20 03:28:31;;;;;;;5.67;1.90;;;0.60;99.90;;;;;;4187086;28;20470;-81
2021/12/20 03:30:33;;;;;;;7.30;1.83;;;0.60;99.90;;;;;;4184326;28;20473;-78
2021/12/20 03:32:35;;;;;;;8.10;2.20;;;0.60;99.90;;;;;;4194642;28;20456;-76
2021/12/20 03:34:36;;;;;;;10.50;2.13;;;0.60;99.90;;;;;;4194360;28;20534;-76
2021/12/20 03:36:39;;;;;;;9.67;2.03;;;0.60;99.90;;;;;;4191891;28;20456;-77
2021/12/20 03:38:40;;;;;;;6.27;2.10;;;0.50;99.90;;;;;;4187686;28;20477;-77
2021/12/20 03:40:42;;;;;;;7.90;2.00;;;0.50;99.90;;;;;;4194147;28;20880;-76
2021/12/20 03:42:46;;;;;;;6.67;1.90;;;0.50;99.90;;;;;;4182886;28;20524;-77
2021/12/20 03:44:48;;;;;;;5.23;1.60;;;0.50;99.90;;;;;;4193383;28;21030;-78
2021/12/20 03:46:50;;;;;;;8.03;1.97;;;0.50;99.90;;;;;;4190381;28;20477;-78
2021/12/20 03:48:51;;;;;;;4.67;2.00;;;0.50;99.90;;;;;;4193431;28;20874;-79
2021/12/20 03:50:53;;;;;;;4.30;1.97;;;0.50;99.90;;;;;;4190093;28;20480;-76
2021/12/20 03:52:55;;;;;;;11.87;2.37;;;0.50;99.90;;;;;;4187370;28;20452;-79
2021/12/20 03:54:57;;;;;;;6.70;1.50;;;0.50;99.90;;;;;;4192526;28;20853;-79
2021/12/20 03:56:58;;;;;;;6.83;1.53;;;0.40;99.90;;;;;;4188657;28;20473;-78
2021/12/20 03:59:02;;;;;;;10.63;2.13;;;0.40;99.90;;;;;;4194834;28;20540;-79
2021/12/20 04:01:06;;;;;;;9.87;2.03;;;0.40;99.90;;;;;;4193362;28;20456;-78
2021/12/20 04:03:12;;;;;;;7.37;1.97;;;0.40;99.90;;;;;;4193618;28;20541;-77
2021/12/20 04:05:14;;;;;;;9.10;2.17;;;0.30;99.90;;;;;;4194019;28;20541;-76
2021/12/20 04:07:16;;;;;;;6.67;1.63;;;0.40;99.90;;;;;;4194146;28;20557;-78
2021/12/20 04:09:18;;;;;;;5.73;1.57;;;0.30;99.90;;;;;;4192860;28;20452;-77
2021/12/20 04:11:20;;;;;;;7.17;1.87;;;0.30;99.90;;;;;;4181114;28;20456;-79
2021/12/20 04:13:22;;;;;;;9.07;1.90;;;0.30;99.90;;;;;;4190407;28;20557;-77
2021/12/20 04:15:25;;;;;;;6.17;1.83;;;0.30;99.90;;;;;;4193858;28;20483;-77
2021/12/20 04:17:27;;;;;;;6.23;1.87;;;0.30;99.90;;;;;;4193619;28;20468;-80
2021/12/20 04:19:28;;;;;;;7.43;2.00;;;0.30;99.90;;;;;;4184346;28;20465;-80
2021/12/20 04:21:31;;;;;;;7.63;1.47;;;0.30;99.90;;;;;;4189304;28;20917;-76
2021/12/20 04:23:32;;;;;;;10.13;2.57;;;0.30;99.90;;;;;;4194876;28;20496;-75
2021/12/20 04:25:34;;;;;;;5.47;1.70;;;0.30;99.90;;;;;;4182102;28;20476;-75
2021/12/20 04:27:36;;;;;;;6.87;1.60;;;0.20;99.90;;;;;;4180447;28;20461;-79
2021/12/20 04:29:38;;;;;;;8.17;1.67;;;0.20;99.90;;;;;;4185285;28;20534;-76
2021/12/20 04:31:41;;;;;;;7.10;1.93;;;0.20;99.90;;;;;;4183615;28;20456;-78
2021/12/20 04:33:43;;;;;;;7.63;1.63;;;0.20;99.90;;;;;;4197763;28;20479;-80
2021/12/20 04:35:45;;;;;;;2.93;1.30;;;0.20;99.90;;;;;;4187845;28;20465;-75
2021/12/20 04:37:48;;;;;;;8.27;1.77;;;0.20;99.90;;;;;;4183503;28;20457;-75
2021/12/20 04:39:50;;;;;;;5.63;1.30;;;0.20;99.90;;;;;;4181264;28;20954;-76
2021/12/20 04:41:52;;;;;;;5.33;1.47;;;0.20;99.90;;;;;;4183007;28;20507;-77
2021/12/20 04:43:54;;;;;;;7.70;1.40;;;0.20;99.90;;;;;;4182267;28;20496;-76
2021/12/20 04:45:55;;;;;;;2.63;1.47;;;0.20;99.90;;;;;;4182192;28;20467;-79
2021/12/20 04:47:59;;;;;;;7.07;1.30;;;0.20;99.90;;;;;;4185376;28;20473;-77
2021/12/20 04:50:01;;;;;;;6.80;1.60;;;0.20;99.90;;;;;;4177260;28;21007;-77
2021/12/20 04:52:03;;;;;;;7.87;1.40;;;0.10;99.90;;;;;;4191566;28;20471;-78
2021/12/20 04:54:04;;;;;;;4.63;1.50;;;0.10;99.90;;;;;;4194955;28;20473;-76
2021/12/20 04:56:06;;;;;;;3.57;1.13;;;0.10;99.90;;;;;;4185844;28;20553;-78
2021/12/20 04:58:08;;;;;;;3.93;1.20;;;0.10;99.90;;;;;;4182872;28;20465;-79
2021/12/20 05:00:13;;;;;;;4.93;1.27;;;0.10;99.90;;;;;;4181136;28;20457;-79
2021/12/20 05:02:15;;;;;;;6.67;1.30;;;0.00;99.90;;;;;;4178353;28;20515;-77
2021/12/20 05:04:18;;;;;;;6.37;1.20;;;0.00;99.90;;;;;;4190291;28;20530;-76
2021/12/20 05:06:20;;;;;;;7.10;1.47;;;0.00;99.90;;;;;;4191864;28;20530;-77
2021/12/20 05:08:21;;;;;;;5.17;1.20;;;-0.10;99.90;;;;;;4192675;28;20477;-74
2021/12/20 05:10:31;;;;;;;4.20;1.10;;;-0.10;99.90;;;;;;4192846;28;20517;-77
2021/12/20 05:12:32;;;;;;;5.23;1.30;;;-0.10;99.90;;;;;;4184063;28;20571;-76
2021/12/20 05:14:34;;;;;;;7.30;1.37;;;-0.10;99.90;;;;;;4178821;28;20504;-81
2021/12/20 05:16:36;;;;;;;5.23;1.40;;;-0.10;99.90;;;;;;4183852;28;20839;-78
2021/12/20 05:18:38;;;;;;;7.03;1.47;;;-0.20;99.90;;;;;;4188199;28;20461;-75
2021/12/20 05:20:41;;;;;;;3.47;1.10;;;-0.10;99.90;;;;;;4180218;28;20546;-79
2021/12/20 05:22:43;;;;;;;4.80;1.27;;;-0.20;99.90;;;;;;4187428;28;20545;-81
2021/12/20 05:24:45;;;;;;;3.93;1.30;;;-0.20;99.90;;;;;;4192690;28;20476;-76
2021/12/20 05:26:46;;;;;;;7.37;1.30;;;-0.20;99.90;;;;;;4190956;28;20460;-77
2021/12/20 05:28:49;;;;;;;4.50;1.33;;;-0.20;99.90;;;;;;4183177;28;20825;-76
2021/12/20 05:30:52;;;;;;;5.90;1.20;;;-0.20;99.90;;;;;;4190077;28;20547;-79
2021/12/20 05:32:54;;;;;;;7.30;1.53;;;-0.20;99.90;;;;;;4191019;28;20983;-75
2021/12/20 05:34:56;;;;;;;2.67;1.20;;;-0.30;99.90;;;;;;4193762;28;20505;-76
2021/12/20 05:36:59;;;;;;;4.77;1.03;;;-0.30;99.90;;;;;;4180729;28;20499;-78
2021/12/20 05:39:02;;;;;;;4.20;1.27;;;-0.30;99.90;;;;;;4192544;28;20479;-79
2021/12/20 05:41:04;;;;;;;5.43;1.30;;;-0.30;99.90;;;;;;4188794;28;20480;-81
2021/12/20 05:43:05;;;;;;;5.47;1.60;;;-0.30;99.90;;;;;;4175566;28;20508;-79
2021/12/20 05:45:08;;;;;;;8.00;1.33;;;-0.30;99.90;;;;;;4188330;28;20545;-80
2021/12/20 05:47:10;;;;;;;5.33;1.50;;;-0.30;99.90;;;;;;4191475;28;20456;-79
2021/12/20 05:49:12;;;;;;;4.97;1.33;;;-0.40;99.90;;;;;;4191885;28;20499;-77
2021/12/20 05:51:14;;;;;;;4.17;1.30;;;-0.40;99.90;;;;;;4180625;28;20499;-76
2021/12/20 05:53:17;;;;;;;5.57;1.10;;;-0.40;99.90;;;;;;4191346;28;20459;-78
2021/12/20 05:55:19;;;;;;;6.73;1.70;;;-0.40;99.90;;;;;;4192509;28;20533;-78
2021/12/20 05:57:21;;;;;;;5.80;1.40;;;-0.40;99.90;;;;;;4189050;28;20932;-76
2021/12/20 05:59:23;;;;;;;7.47;1.70;;;-0.40;99.90;;;;;;4178834;28;20476;-75
2021/12/20 06:01:25;;;;;;;3.67;1.37;;;-0.40;99.90;;;;;;4189445;28;20478;-77
2021/12/20 06:03:27;;;;;;;6.13;1.70;;;-0.40;99.90;;;;;;4191980;28;20930;-75
2021/12/20 06:05:29;;;;;;;8.77;1.33;;;-0.50;99.90;;;;;;4189070;28;20562;-75
2021/12/20 06:07:30;;;;;;;6.47;1.53;;;-0.50;99.90;;;;;;4183958;28;20483;-78
2021/12/20 06:09:33;;;;;;;4.97;1.50;;;-0.50;99.90;;;;;;4192890;28;20898;-81
2021/12/20 06:11:35;;;;;;;6.43;1.27;;;-0.50;99.90;;;;;;4187244;28;20461;-77
2021/12/20 06:13:37;;;;;;;8.27;2.17;;;-0.50;99.90;;;;;;4191592;28;20471;-76
2021/12/20 06:15:38;;;;;;;8.80;1.73;;;-0.50;99.90;;;;;;4182989;28;20530;-77
2021/12/20 06:17:41;;;;;;;8.93;2.20;;;-0.50;99.90;;;;;;4188244;28;20453;-77
2021/12/20 06:19:42;;;;;;;6.13;1.43;;;-0.50;99.90;;;;;;4187339;28;20930;-79
2021/12/20 06:21:44;;;;;;;5.87;1.37;;;-0.40;99.90;;;;;;4180640;28;20831;-83
2021/12/20 06:23:46;;;;;;;9.10;1.80;;;-0.40;99.90;;;;;;4186019;28;20499;-78
2021/12/20 06:25:49;;;;;;;8.97;1.60;;;-0.40;99.90;;;;;;4185395;28;20488;-75
2021/12/20 06:27:50;;;;;;;11.87;2.63;;;-0.30;99.90;;;;;;4184646;28;20877;-81
2021/12/20 06:29:52;;;;;;;8.73;1.87;;;-0.40;99.90;;;;;;4186955;28;20460;-76
2021/12/20 06:31:54;;;;;;;5.17;2.03;;;-0.40;99.90;;;;;;4183337;28;20453;-79
2021/12/20 06:33:55;;;;;;;7.50;1.73;;;-0.40;99.90;;;;;;4181240;28;20476;-79
2021/12/20 06:35:57;;;;;;;9.80;1.70;;;-0.40;99.90;;;;;;4186464;28;20511;-83
2021/12/20 06:38:00;;;;;;;6.87;1.50;;;-0.40;99.90;;;;;;4185323;28;20866;-82
2021/12/20 06:40:02;;;;;;;5.57;1.53;;;-0.40;99.90;;;;;;4185988;28;20560;-79
2021/12/20 06:42:06;;;;;;;8.67;1.60;;;-0.40;99.90;;;;;;4189621;28;21052;-74
2021/12/20 06:44:08;;;;;;;5.87;1.50;;;-0.40;99.90;;;;;;4181496;28;20531;-76
2021/12/20 06:46:09;;;;;;;7.40;1.50;;;-0.40;99.90;;;;;;4184677;28;20851;-79
2021/12/20 06:48:11;;;;;;;6.63;1.33;;;-0.40;99.90;;;;;;4182122;28;20507;-82
2021/12/20 06:50:13;;;;;;;7.10;1.33;;;-0.40;99.90;;;;;;4186241;28;20462;-79
2021/12/20 06:52:15;;;;;;;4.83;1.70;;;-0.40;99.90;;;;;;4187493;28;20854;-80
2021/12/20 06:54:18;;;;;;;5.77;1.17;;;-0.40;99.90;;;;;;4188534;28;20471;-81
2021/12/20 06:56:20;;;;;;;2.20;1.10;;;-0.40;99.90;;;;;;4188190;28;20513;-82
2021/12/20 06:58:23;;;;;;;8.57;1.23;;;-0.40;99.90;;;;;;4184792;28;20513;-81
2021/12/20 07:00:26;;;;;;;4.03;1.30;;;-0.40;99.90;;;;;;4185101;28;20968;-82
2021/12/20 07:02:28;;;;;;;9.37;1.53;;;-0.50;99.90;;;;;;4186419;28;20460;-82
2021/12/20 07:04:30;;;;;;;4.00;1.60;;;-0.40;99.90;;;;;;4187340;28;20495;-82
2021/12/20 07:06:32;;;;;;;6.10;1.67;;;-0.50;99.90;;;;;;4186213;28;20985;-78
2021/12/20 07:08:33;;;;;;;8.87;1.70;;;-0.50;99.90;;;;;;4189395;28;20464;-78
2021/12/20 07:10:35;;;;;;;7.80;1.73;;;-0.50;99.90;;;;;;4189637;28;20815;-78
2021/12/20 07:12:38;;;;;;;2.90;1.20;;;-0.50;99.90;;;;;;4189743;28;21016;-81
2021/12/20 07:14:42;;;;;;;9.57;1.43;;;-0.50;99.90;;;;;;4190088;28;20492;-76
2021/12/20 07:16:43;;;;;;;4.50;1.20;;;-0.50;99.90;;;;;;4190277;28;20448;-79
2021/12/20 07:18:45;;;;;;;5.43;1.70;;;-0.50;99.90;;;;;;4186286;28;20521;-81
2021/12/20 07:20:47;;;;;;;9.53;2.00;;;-0.50;99.90;;;;;;4181418;28;20944;-82
2021/12/20 07:22:48;;;;;;;9.50;2.00;;;-0.60;99.90;;;;;;4188807;28;20502;-81
2021/12/20 07:24:50;;;;;;;5.97;1.53;;;-0.60;99.90;;;;;;4187572;28;20562;-79
2021/12/20 07:26:52;;;;;;;7.73;1.83;;;-0.60;99.90;;;;;;4189084;28;20460;-79
2021/12/20 07:28:54;;;;;;;5.63;1.33;;;-0.60;99.90;;;;;;4187951;28;20893;-78
2021/12/20 07:30:57;;;;;;;10.57;1.87;;;-0.60;99.90;;;;;;4189107;28;20460;-78
2021/12/20 07:32:58;;;;;;;8.17;1.83;;;-0.60;99.90;;;;;;4189814;28;20448;-77
2021/12/20 07:35:00;;;;;;;5.37;1.80;;;-0.60;99.90;;;;;;4189729;28;20988;-78
2021/12/20 07:37:02;;;;;;;6.33;1.63;;;-0.60;99.90;;;;;;4189696;28;20464;-81
2021/12/20 07:39:04;;;;;;;5.10;1.50;;;-0.60;99.90;;;;;;4189759;28;20452;-77
2021/12/20 07:41:06;;;;;;;6.07;1.70;;;-0.60;99.90;;;;;;4188157;28;20517;-80
2021/12/20 07:43:08;;;;;;;6.87;1.80;;;-0.60;99.90;;;;;;4189576;28;20870;-81
2021/12/20 07:45:10;;;;;;;7.10;1.70;;;-0.60;99.90;;;;;;4189969;28;20488;-79
2021/12/20 07:47:13;;;;;;;5.90;1.90;;;-0.60;99.90;;;;;;4188636;28;20472;-78
2021/12/20 07:49:15;;;;;;;7.43;1.50;;;-0.60;99.90;;;;;;4189891;28;20507;-81
2021/12/20 07:51:17;;;;;;;7.47;1.73;;;-0.60;99.90;;;;;;4187669;28;20468;-80
2021/12/20 07:53:19;;;;;;;12.73;2.03;;;-0.60;99.90;;;;;;4187538;28;20550;-75
2021/12/20 07:55:21;;;;;;;5.47;1.70;;;-0.60;99.90;;;;;;4189002;28;20828;-80
2021/12/20 07:57:23;;;;;;;7.97;1.73;;;-0.60;99.90;;;;;;4189861;28;20521;-77
2021/12/20 07:59:24;;;;;;;6.30;1.70;;;-0.60;99.90;;;;;;4187789;28;20469;-80
2021/12/20 08:01:27;;;;;;;8.10;2.00;;;-0.60;99.90;;;;;;4190354;28;20467;-80
2021/12/20 08:03:30;;;;;;;6.80;1.80;;;-0.60;99.90;;;;;;4189648;28;20456;-81
2021/12/20 08:05:32;;;;;;;9.50;1.80;;;-0.60;99.90;;;;;;4188934;28;20521;-81
2021/12/20 08:07:34;;;;;;;7.87;1.60;;;-0.60;99.90;;;;;;4189261;28;20468;-81
2021/12/20 08:09:36;;;;;;;8.77;2.10;;;-0.60;99.90;;;;;;4186284;28;20468;-80
2021/12/20 08:11:38;;;;;;;8.97;1.60;;;-0.60;99.90;;;;;;4188555;28;20518;-77
2021/12/20 08:13:44;;;;;;;4.60;1.80;;;-0.60;99.90;;;;;;4188814;28;20517;-77
2021/12/20 08:15:46;;;;;;;7.73;1.50;;;-0.50;99.90;;;;;;4193488;22;21085;-80
2021/12/20 08:17:47;;;;;;;4.50;1.50;;;-0.50;99.90;;;;;;4172335;28;20958;-81
2021/12/20 08:19:50;;;;;;;6.90;1.60;;;-0.50;99.90;;;;;;4172410;28;20473;-81
2021/12/20 08:21:52;;;;;;;5.50;1.80;;;-0.50;99.90;;;;;;4174167;28;20453;-81
2021/12/20 08:23:54;;;;;;;8.57;2.43;;;-0.50;99.90;;;;;;4174479;28;20484;-80
2021/12/20 08:25:56;;;;;;;7.10;1.97;;;-0.50;99.90;;;;;;4174806;28;20503;-80
2021/12/20 08:27:59;;;;;;;7.93;2.00;;;-0.50;99.90;;;;;;4174141;28;20556;-80
2021/12/20 08:30:01;;;;;;;11.53;3.17;;;-0.50;99.90;;;;;;4172896;28;20472;-80
2021/12/20 08:32:03;;;;;;;7.50;1.80;;;-0.40;99.90;;;;;;4174640;28;20859;-80
2021/12/20 08:34:04;;;;;;;8.20;1.73;;;-0.40;99.90;;;;;;4177501;28;20929;-81
2021/12/20 08:36:12;;;;;;;8.80;2.10;;;-0.40;99.90;;;;;;4172470;28;20843;-78
2021/12/20 08:38:13;;;;;;;8.77;1.67;;;-0.40;99.90;;;;;;4169636;28;20469;-80
2021/12/20 08:40:17;;;;;;;7.97;1.80;;;-0.40;99.90;;;;;;4172243;28;20473;-80
2021/12/20 08:42:20;;;;;;;16.67;2.40;;;-0.30;99.90;;;;;;4173534;28;20458;-81
2021/12/20 08:44:22;;;;;;;7.60;1.90;;;-0.30;99.90;;;;;;4170892;28;20554;-80
2021/12/20 08:46:23;;;;;;;7.10;1.93;;;-0.30;99.90;;;;;;4170213;28;20465;-78
2021/12/20 08:48:25;;;;;;;13.23;2.00;;;-0.30;99.90;;;;;;4172773;28;20457;-82
2021/12/20 08:50:28;;;;;;;10.40;2.00;;;-0.30;99.90;;;;;;4170391;28;20458;-80
2021/12/20 08:52:31;;;;;;;9.70;2.20;;;-0.20;99.90;;;;;;4173471;28;20749;-80
2021/12/20 08:54:33;;;;;;;8.83;2.10;;;-0.20;99.90;;;;;;4171977;28;20584;-80
2021/12/20 08:56:35;;;;;;;6.53;2.03;;;-0.20;99.90;;;;;;4171462;28;20469;-81
2021/12/20 08:58:36;;;;;;;6.60;1.97;;;-0.10;99.90;;;;;;4172147;28;20473;-80
2021/12/20 09:00:38;;;;;;;8.30;1.97;;;-0.10;99.90;;;;;;4170454;28;20527;-81
2021/12/20 09:02:40;;;;;;;10.30;2.00;;;-0.10;99.90;;;;;;4171239;28;20464;-80
2021/12/20 09:04:42;;;;;;;10.37;1.90;;;-0.10;99.90;;;;;;4172013;28;21188;-81
2021/12/20 09:06:44;;;;;;;7.13;1.90;;;0.00;99.90;;;;;;4174312;28;20878;-81
2021/12/20 09:08:47;;;;;;;9.20;2.30;;;0.00;99.90;;;;;;4173894;28;20470;-81
2021/12/20 09:10:49;;;;;;;7.07;2.30;;;0.10;99.90;;;;;;4172430;28;20473;-79
2021/12/20 09:12:51;;;;;;;9.87;2.07;;;0.00;99.90;;;;;;4170485;28;20855;-80
2021/12/20 09:14:53;;;;;;;8.93;2.10;;;0.10;99.90;;;;;;4172473;28;20643;-80
2021/12/20 09:16:55;;;;;;;10.63;2.33;;;0.10;99.90;;;;;;4173986;28;20483;-80
2021/12/20 09:18:56;;;;;;;11.10;2.17;;;0.20;99.90;;;;;;4172876;28;20467;-81
2021/12/20 09:20:58;;;;;;;5.70;1.53;;;0.20;99.90;;;;;;4172159;28;20526;-82
2021/12/20 09:23:04;;;;;;;9.63;2.20;;;0.20;99.90;;;;;;4173792;28;20470;-78
2021/12/20 09:25:08;;;;;;;7.23;1.80;;;0.20;99.90;;;;;;4173140;28;20995;-81
2021/12/20 09:27:12;;;;;;;9.17;1.87;;;0.30;99.90;;;;;;4171946;28;20450;-80
2021/12/20 09:29:14;;;;;;;7.00;1.70;;;0.30;99.90;;;;;;4173188;28;20822;-80
2021/12/20 09:31:16;;;;;;;5.47;1.57;;;0.30;99.90;;;;;;4172256;28;20468;-80
2021/12/20 09:33:18;;;;;;;6.03;1.80;;;0.40;99.90;;;;;;4171705;28;20506;-81
2021/12/20 09:35:20;;;;;;;5.83;2.13;;;0.40;99.90;;;;;;4172221;28;20472;-80
2021/12/20 09:37:23;;;;;;;5.27;1.60;;;0.40;99.90;;;;;;4171279;28;21015;-81
2021/12/20 09:39:24;;;;;;;10.37;1.60;;;0.40;99.90;;;;;;4172640;28;20476;-81
2021/12/20 09:41:59;;;;;;;8.40;2.27;;;0.40;99.90;;;;;;4170071;28;20882;-81
2021/12/20 09:43:52;;;;;;;5.03;1.67;;;0.40;99.90;;;;;;4170742;28;20462;-81
2021/12/20 09:45:54;;;;;;;9.43;1.80;;;0.50;99.90;;;;;;4171125;28;20495;-81
2021/12/20 09:47:56;;;;;;;5.17;1.80;;;0.50;99.90;;;;;;4172056;28;20445;-82
2021/12/20 09:49:58;;;;;;;6.77;2.27;;;0.50;99.90;;;;;;4172665;28;20546;-81
2021/12/20 09:52:02;;;;;;;8.50;2.13;;;0.60;99.90;;;;;;4170115;28;20521;-81
2021/12/20 09:54:04;;;;;;;8.20;1.53;;;0.60;99.90;;;;;;4171806;28;20500;-81
2021/12/20 09:56:07;;;;;;;5.03;1.80;;;0.70;99.90;;;;;;4173587;28;20461;-81
2021/12/20 09:58:10;;;;;;;6.93;1.70;;;0.60;99.90;;;;;;4173349;28;20522;-81
2021/12/20 10:00:14;;;;;;;8.30;2.10;;;0.70;99.90;;;;;;4171720;28;20869;-80
2021/12/20 10:02:19;;;;;;;11.20;2.13;;;0.70;99.90;;;;;;4170398;28;20507;-81
2021/12/20 10:04:23;;;;;;;7.90;2.33;;;0.70;99.90;;;;;;4172519;28;20479;-82
2021/12/20 10:06:25;;;;;;;8.97;2.07;;;0.70;99.90;;;;;;4173262;28;20568;-80
2021/12/20 10:08:32;;;;;;;10.60;2.50;;;0.80;99.90;;;;;;4172768;28;20499;-81
2021/12/20 10:10:40;;;;;;;6.77;1.83;;;0.80;99.90;;;;;;4172193;28;20749;-82
2021/12/20 10:12:49;;;;;;;6.13;2.20;;;0.80;99.90;;;;;;4172265;28;20518;-81
2021/12/20 10:14:57;;;;;;;10.87;2.07;;;0.80;99.90;;;;;;4171926;28;20483;-80
2021/12/20 10:17:06;;;;;;;9.50;1.87;;;0.90;99.90;;;;;;4172504;28;20894;-81
2021/12/20 10:19:27;;;;;;;11.30;2.17;;;0.90;99.90;;;;;;4171784;28;20454;-81
2021/12/20 10:21:37;;;;;;;4.40;1.37;;;0.90;99.90;;;;;;4172446;28;20456;-80
2021/12/20 10:23:41;;;;;;;9.07;1.60;;;1.00;99.90;;;;;;4173857;28;20893;-82
2021/12/20 10:25:45;;;;;;;4.07;1.77;;;1.10;99.90;;;;;;4176254;28;20502;-81
2021/12/20 10:27:47;;;;;;;6.80;1.93;;;1.10;99.90;;;;;;4175516;28;20951;-82
2021/12/20 10:29:48;;;;;;;7.70;2.00;;;1.10;99.90;;;;;;4176767;28;20854;-81
2021/12/20 10:31:53;;;;;;;9.60;2.13;;;1.10;99.90;;;;;;4177245;28;20463;-82
2021/12/20 10:33:57;;;;;;;5.93;1.67;;;1.20;99.90;;;;;;4176389;28;20463;-79
2021/12/20 10:36:01;;;;;;;9.53;1.97;;;1.20;99.90;;;;;;4176866;28;20475;-80
2021/12/20 10:38:07;;;;;;;7.07;1.97;;;1.20;99.90;;;;;;4176513;28;20868;-80
2021/12/20 10:40:10;;;;;;;7.10;1.53;;;1.20;99.90;;;;;;4175605;28;20545;-78
2021/12/20 10:42:17;;;;;;;8.70;2.37;;;1.30;99.90;;;;;;4177443;28;20902;-79
2021/12/20 10:44:24;;;;;;;5.27;1.60;;;1.30;99.90;;;;;;4177242;28;21134;-78
2021/12/20 10:46:27;;;;;;;7.00;2.00;;;1.40;99.90;;;;;;4180884;28;20501;-83
2021/12/20 10:48:34;;;;;;;8.77;1.70;;;1.40;99.90;;;;;;4180386;28;20873;-80
2021/12/20 10:50:42;;;;;;;6.13;2.37;;;1.50;99.90;;;;;;4179747;28;20521;-79
2021/12/20 10:52:44;;;;;;;6.93;1.97;;;1.50;99.90;;;;;;4179769;28;20875;-80
2021/12/20 10:54:47;;;;;;;5.47;1.97;;;1.50;99.90;;;;;;4181160;28;20485;-80
2021/12/20 10:56:51;;;;;;;6.47;2.00;;;1.60;99.90;;;;;;4180018;28;20475;-78